createdAt,value
2023-03-01T00:01:36.988Z,4.90
2023-03-01T00:05:23.068Z,4.90
2023-03-01T00:08:59.814Z,5.80
2023-03-01T00:12:38.522Z,4.80
2023-03-01T00:16:14.100Z,5.00
2023-03-01T00:19:50.447Z,7.00
2023-03-01T00:23:23.143Z,5.70
2023-03-01T00:26:55.278Z,6.50
2023-03-01T00:30:19.984Z,6.10
2023-03-01T00:33:44.541Z,5.80
2023-03-01T00:37:18.155Z,5.60
2023-03-01T00:40:55.026Z,5.30
2023-03-01T00:44:33.646Z,5.90
2023-03-01T00:48:10.985Z,6.30
2023-03-01T00:51:46.558Z,6.60
2023-03-01T00:55:25.040Z,6.20
2023-03-01T00:58:59.999Z,5.00
2023-03-01T01:02:38.326Z,5.80
2023-03-01T01:06:13.284Z,5.70
2023-03-01T01:09:52.670Z,5.00
2023-03-01T01:13:29.236Z,6.40
2023-03-01T01:17:08.238Z,6.20
2023-03-01T01:20:46.261Z,5.90
2023-03-01T01:24:25.155Z,6.10
2023-03-01T01:28:00.223Z,4.90
2023-03-01T01:31:39.044Z,5.80
2023-03-01T01:35:14.034Z,6.20
2023-03-01T01:38:52.547Z,5.50
2023-03-01T01:42:28.254Z,5.20
2023-03-01T01:46:07.168Z,4.70
2023-03-01T01:49:42.070Z,5.40
2023-03-01T01:53:21.380Z,5.90
2023-03-01T01:56:57.509Z,5.80
2023-03-01T02:00:35.977Z,5.60
2023-03-01T02:04:11.169Z,4.80
2023-03-01T02:07:52.433Z,4.90
2023-03-01T02:11:27.202Z,4.70
2023-03-01T02:15:08.182Z,6.20
2023-03-01T02:18:43.052Z,5.70
2023-03-01T02:22:22.796Z,5.00
2023-03-01T02:25:58.398Z,5.30
2023-03-01T02:29:38.480Z,6.00
2023-03-01T02:33:14.446Z,4.80
2023-03-01T02:36:53.220Z,6.00
2023-03-01T02:40:28.562Z,6.30
2023-03-01T02:44:07.391Z,5.20
2023-03-01T02:47:43.516Z,6.90
2023-03-01T02:51:22.027Z,5.50
2023-03-01T02:54:57.130Z,5.10
2023-03-01T02:58:36.198Z,5.30
2023-03-01T03:02:11.120Z,5.00
2023-03-01T03:05:48.358Z,5.60
2023-03-01T03:09:27.491Z,6.00
2023-03-01T03:13:03.347Z,5.40
2023-03-01T03:16:42.069Z,6.10
2023-03-01T03:20:17.454Z,6.40
2023-03-01T03:23:58.328Z,10.00
2023-03-01T03:27:34.223Z,6.30
2023-03-01T03:31:14.685Z,6.30
2023-03-01T03:34:52.383Z,5.90
2023-03-01T03:38:31.812Z,5.30
2023-03-01T03:42:07.650Z,5.10
2023-03-01T03:45:46.096Z,5.20
2023-03-01T03:49:22.480Z,6.20
2023-03-01T03:53:01.290Z,5.30
2023-03-01T03:56:36.143Z,5.40
2023-03-01T04:00:15.848Z,5.60
2023-03-01T04:03:51.302Z,5.00
2023-03-01T04:07:33.812Z,4.90
2023-03-01T04:11:12.384Z,5.30
2023-03-01T04:14:49.028Z,4.50
2023-03-01T04:18:27.768Z,5.50
2023-03-01T04:22:02.482Z,6.20
2023-03-01T04:25:41.137Z,5.40
2023-03-01T04:29:16.350Z,5.10
2023-03-01T04:32:55.068Z,5.10
2023-03-01T04:36:31.148Z,5.40
2023-03-01T04:40:10.578Z,4.90
2023-03-01T04:43:45.308Z,5.00
2023-03-01T04:47:22.158Z,5.50
2023-03-01T04:50:57.342Z,6.70
2023-03-01T04:54:36.197Z,4.50
2023-03-01T04:58:11.795Z,5.80
2023-03-01T05:01:50.386Z,5.30
2023-03-01T05:05:24.898Z,5.00
2023-03-01T05:09:23.473Z,5.10
2023-03-01T05:12:58.778Z,4.80
2023-03-01T05:16:37.259Z,5.20
2023-03-01T05:20:11.011Z,6.00
2023-03-01T05:23:49.957Z,4.90
2023-03-01T05:27:25.715Z,4.10
2023-03-01T05:31:05.433Z,5.80
2023-03-01T05:34:40.932Z,6.40
2023-03-01T05:38:19.717Z,5.30
2023-03-01T05:41:54.643Z,5.10
2023-03-01T05:45:37.179Z,5.20
2023-03-01T05:49:12.728Z,5.20
2023-03-01T05:52:49.079Z,5.50
2023-03-01T05:56:24.527Z,4.80
2023-03-01T06:00:03.384Z,5.50
2023-03-01T06:03:39.068Z,5.40
2023-03-01T06:07:18.219Z,5.30
2023-03-01T06:10:55.060Z,4.30
2023-03-01T06:14:34.227Z,5.30
2023-03-01T06:18:15.707Z,5.50
2023-03-01T06:21:52.307Z,6.10
2023-03-01T06:25:30.748Z,5.00
2023-03-01T06:29:11.916Z,5.20
2023-03-01T06:32:50.467Z,5.80
2023-03-01T06:36:27.080Z,5.50
2023-03-01T06:40:06.983Z,6.10
2023-03-01T06:43:43.201Z,7.40
2023-03-01T06:47:23.142Z,7.10
2023-03-01T06:51:01.298Z,5.50
2023-03-01T06:54:41.169Z,6.20
2023-03-01T06:58:21.361Z,6.10
2023-03-01T07:02:01.148Z,6.90
2023-03-01T07:05:38.316Z,6.30
2023-03-01T07:09:17.993Z,8.00
2023-03-01T07:12:55.339Z,6.20
2023-03-01T07:16:36.243Z,6.60
2023-03-01T07:20:13.252Z,6.10
2023-03-01T07:23:53.108Z,5.70
2023-03-01T07:27:31.236Z,5.90
2023-03-01T07:31:11.134Z,6.50
2023-03-01T07:34:49.406Z,5.30
2023-03-01T07:38:29.296Z,6.70
2023-03-01T07:42:06.224Z,6.60
2023-03-01T07:45:46.397Z,6.00
2023-03-01T07:49:23.254Z,6.70
2023-03-01T07:53:03.116Z,7.10
2023-03-01T07:56:41.010Z,6.50
2023-03-01T12:53:49.846Z,8.60
2023-03-01T12:56:39.733Z,10.20
2023-03-01T12:59:32.907Z,8.70
2023-03-01T13:03:15.415Z,10.70
2023-03-01T13:06:43.667Z,10.50
2023-03-01T13:09:36.342Z,8.90
2023-03-01T13:13:02.247Z,10.20
2023-03-01T13:15:54.800Z,9.70
2023-03-01T13:18:45.007Z,12.10
2023-03-01T13:21:34.157Z,7.20
2023-03-01T13:24:42.329Z,9.90
2023-03-01T13:27:33.333Z,7.80
2023-03-01T13:30:34.712Z,7.50
2023-03-01T13:33:35.298Z,7.50
2023-03-01T13:36:31.420Z,8.10
2023-03-01T13:39:39.822Z,7.40
2023-03-01T13:42:33.448Z,7.40
2023-03-01T13:45:31.614Z,7.70
2023-03-01T13:48:28.909Z,7.30
2023-03-01T13:51:22.643Z,6.90
2023-03-01T13:54:12.503Z,6.90
2023-03-01T13:57:04.396Z,8.90
2023-03-01T13:59:53.447Z,10.20
2023-03-01T14:02:44.733Z,6.70
2023-03-01T14:05:34.506Z,7.30
2023-03-01T14:08:28.942Z,6.20
2023-03-01T14:11:26.141Z,7.60
2023-03-01T14:14:53.278Z,6.70
2023-03-01T14:17:45.129Z,7.00
2023-03-01T14:20:48.358Z,7.00
2023-03-01T14:23:39.287Z,7.40
2023-03-01T14:26:28.597Z,7.90
2023-03-01T14:29:27.114Z,7.80
2023-03-01T14:32:25.255Z,7.90
2023-03-01T14:35:22.163Z,6.70
2023-03-01T14:38:22.318Z,8.20
2023-03-01T14:41:16.795Z,8.80
2023-03-01T14:44:08.854Z,6.40
2023-03-01T14:47:03.280Z,7.70
2023-03-01T14:49:54.879Z,6.90
2023-03-01T14:52:45.932Z,6.90
2023-03-01T14:55:42.153Z,7.60
2023-03-01T14:58:33.468Z,9.80
2023-03-01T15:01:22.644Z,9.90
2023-03-01T15:04:13.590Z,9.40
2023-03-01T15:07:06.222Z,8.20
2023-03-01T15:09:55.392Z,7.20
2023-03-01T15:12:44.859Z,7.50
2023-03-01T15:15:39.368Z,7.20
2023-03-01T15:18:36.293Z,7.60
2023-03-01T15:21:32.091Z,7.50
2023-03-01T15:24:25.416Z,7.60
2023-03-01T15:27:19.667Z,7.10
2023-03-01T15:30:18.922Z,7.30
2023-03-01T15:33:21.844Z,6.70
2023-03-01T15:36:46.876Z,7.80
2023-03-01T15:39:40.293Z,7.90
2023-03-01T15:42:29.672Z,7.70
2023-03-01T15:45:24.535Z,9.00
2023-03-01T15:48:19.170Z,8.80
2023-03-01T15:51:11.337Z,8.40
2023-03-01T15:54:23.127Z,8.20
2023-03-01T15:57:14.629Z,9.10
2023-03-01T16:00:12.265Z,8.20
2023-03-01T16:03:02.200Z,8.60
2023-03-01T16:05:52.010Z,8.60
2023-03-01T16:08:42.168Z,8.30
2023-03-01T16:11:33.566Z,9.20
2023-03-01T16:14:23.041Z,8.40
2023-03-01T16:17:12.206Z,13.00
2023-03-01T16:20:01.168Z,21.90
2023-03-01T16:22:50.390Z,32.30
2023-03-01T16:25:41.048Z,14.50
2023-03-01T16:28:30.530Z,14.50
2023-03-01T16:31:20.356Z,33.10
2023-03-01T16:34:13.361Z,11.90
2023-03-01T16:37:03.900Z,8.80
2023-03-01T16:39:54.062Z,8.90
2023-03-01T16:42:43.232Z,11.70
2023-03-01T16:45:37.968Z,7.80
2023-03-01T16:48:27.676Z,18.40
2023-03-01T16:51:21.851Z,9.40
2023-03-01T16:54:11.903Z,9.50
2023-03-01T16:57:01.225Z,10.60
2023-03-01T16:59:54.781Z,8.30
2023-03-01T17:02:45.845Z,10.30
2023-03-01T17:05:35.275Z,10.70
2023-03-01T17:08:25.819Z,9.10
2023-03-01T17:11:17.426Z,7.60
2023-03-01T17:14:06.419Z,7.80
2023-03-01T17:16:55.613Z,9.20
2023-03-01T17:19:44.737Z,8.20
2023-03-01T17:22:34.285Z,9.30
2023-03-01T17:25:23.642Z,8.20
2023-03-01T17:28:13.791Z,9.70
2023-03-01T17:31:03.671Z,9.30
2023-03-01T17:33:52.688Z,8.30
2023-03-01T17:36:44.284Z,9.40
2023-03-01T17:39:36.354Z,11.70
2023-03-01T17:42:25.756Z,10.80
2023-03-01T17:45:14.854Z,8.10
2023-03-01T17:48:04.578Z,8.50
2023-03-01T17:51:13.599Z,9.00
2023-03-01T17:54:04.057Z,7.80
2023-03-01T17:56:53.585Z,9.00
2023-03-01T17:59:43.001Z,8.40
2023-03-01T18:02:32.788Z,8.40
2023-03-01T18:05:23.218Z,8.30
2023-03-01T18:08:13.536Z,9.50
2023-03-01T18:11:02.761Z,8.30
2023-03-01T18:13:51.940Z,7.00
2023-03-01T18:16:41.028Z,7.40
2023-03-01T18:19:32.660Z,6.90
2023-03-01T18:22:22.049Z,9.50
2023-03-01T18:25:12.545Z,9.90
2023-03-01T18:28:02.592Z,9.40
2023-03-01T18:30:57.804Z,7.70
2023-03-01T18:33:47.042Z,7.50
2023-03-01T18:36:38.369Z,7.50
2023-03-01T18:39:28.775Z,7.20
2023-03-01T18:42:20.533Z,6.80
2023-03-01T18:45:10.669Z,7.00
2023-03-01T18:48:04.477Z,7.30
2023-03-01T18:50:53.803Z,7.40
2023-03-01T18:53:47.881Z,7.80
2023-03-01T18:56:37.159Z,6.10
2023-03-01T18:59:26.213Z,6.60
2023-03-01T19:02:15.854Z,7.80
2023-03-01T19:05:09.451Z,6.70
2023-03-01T19:07:58.969Z,6.50
2023-03-01T19:10:56.047Z,6.30
2023-03-01T19:13:45.652Z,7.10
2023-03-01T19:16:40.638Z,6.90
2023-03-01T19:19:29.949Z,6.40
2023-03-01T19:22:19.329Z,6.00
2023-03-01T19:25:08.966Z,6.90
2023-03-01T19:27:58.323Z,6.30
2023-03-01T19:30:47.690Z,6.30
2023-03-01T19:33:37.412Z,7.30
2023-03-01T19:36:33.484Z,6.50
2023-03-01T19:39:22.694Z,7.50
2023-03-01T19:42:12.229Z,6.30
2023-03-01T19:45:07.834Z,7.10
2023-03-01T19:47:57.799Z,7.00
2023-03-01T19:50:46.990Z,6.90
2023-03-01T19:53:38.290Z,6.50
2023-03-01T19:56:27.658Z,6.70
2023-03-01T19:59:24.579Z,6.80
2023-03-01T20:02:13.816Z,7.20
2023-03-01T20:05:02.808Z,6.90
2023-03-01T20:07:57.398Z,6.40
2023-03-01T20:10:46.279Z,6.40
2023-03-01T20:13:35.866Z,6.50
2023-03-01T20:16:27.009Z,6.40
2023-03-01T20:19:16.576Z,6.90
2023-03-01T20:22:05.685Z,6.40
2023-03-01T20:24:54.835Z,7.10
2023-03-01T20:27:47.719Z,6.30
2023-03-01T20:30:38.741Z,6.70
2023-03-01T20:33:27.812Z,8.50
2023-03-01T20:36:17.582Z,8.60
2023-03-01T20:39:09.829Z,7.20
2023-03-01T20:41:58.442Z,7.20
2023-03-01T20:44:48.170Z,6.40
2023-03-01T20:47:38.216Z,8.30
2023-03-01T20:50:28.107Z,7.90
2023-03-01T20:53:17.584Z,6.90
2023-03-01T20:56:08.396Z,7.40
2023-03-01T20:59:00.482Z,7.40
2023-03-01T21:01:49.900Z,7.50
2023-03-01T21:04:39.194Z,7.60
2023-03-01T21:07:28.304Z,7.30
2023-03-01T21:10:17.548Z,8.20
2023-03-01T21:13:07.706Z,7.10
2023-03-01T21:15:59.967Z,6.50
2023-03-01T21:18:49.320Z,7.00
2023-03-01T21:21:38.441Z,7.40
2023-03-01T21:24:27.520Z,6.40
2023-03-01T21:27:16.712Z,7.20
2023-03-01T21:30:06.595Z,7.50
2023-03-01T21:32:56.977Z,7.30
2023-03-01T21:35:46.001Z,7.30
2023-03-01T21:38:43.017Z,8.70
2023-03-01T21:41:33.833Z,6.90
2023-03-01T21:44:24.684Z,8.30
2023-03-01T21:47:13.771Z,7.70
2023-03-01T21:50:02.731Z,8.00
2023-03-01T21:52:51.623Z,7.00
2023-03-01T21:55:47.179Z,6.90
2023-03-01T21:58:36.084Z,5.90
2023-03-01T22:01:27.362Z,5.70
2023-03-01T22:04:16.680Z,6.60
2023-03-01T22:07:06.186Z,6.00
2023-03-01T22:09:55.228Z,5.60
2023-03-01T22:12:46.184Z,5.10
2023-03-01T22:15:35.238Z,4.90
2023-03-01T22:18:24.675Z,3.90
2023-03-01T22:21:13.873Z,4.00
2023-03-01T22:24:04.043Z,4.60
2023-03-01T22:26:54.998Z,5.00
2023-03-01T22:29:43.992Z,4.50
2023-03-01T22:32:33.660Z,4.70
2023-03-01T22:35:22.765Z,4.20
2023-03-01T22:38:12.297Z,5.40
2023-03-01T22:41:04.763Z,3.90
2023-03-01T22:43:54.372Z,8.70
2023-03-01T22:46:45.548Z,5.90
2023-03-01T22:49:35.026Z,5.50
2023-03-01T22:52:24.117Z,5.90
2023-03-01T22:55:13.693Z,6.50
2023-03-01T22:58:02.695Z,6.90
2023-03-01T23:00:52.056Z,7.10
2023-03-01T23:03:41.208Z,7.40
2023-03-01T23:06:31.210Z,6.90
2023-03-01T23:09:30.881Z,7.80
2023-03-01T23:12:19.566Z,9.60
2023-03-01T23:15:10.508Z,9.70
2023-03-01T23:17:59.725Z,11.50
2023-03-01T23:20:48.844Z,10.50
2023-03-01T23:23:38.548Z,9.80
2023-03-01T23:26:28.093Z,8.90
2023-03-01T23:29:17.212Z,9.30
2023-03-01T23:32:06.264Z,7.50
2023-03-01T23:34:55.395Z,8.20
2023-03-01T23:37:45.575Z,7.30
2023-03-01T23:40:34.608Z,7.50
2023-03-01T23:43:23.794Z,7.20
2023-03-01T23:46:14.512Z,7.20
2023-03-01T23:49:04.714Z,7.50
2023-03-01T23:51:53.842Z,6.60
2023-03-01T23:54:43.666Z,6.50
2023-03-01T23:57:34.523Z,5.10
